Terminal Aerodrome Forecast
Issued by NWS

Home | Current Version | Previous Version | Text Only | Print | Product List | Glossary On
Versions: 1 2 3 4 5 6 7 8 9 10 11 12 13 14 15 16 17 18 19 20 21 22 23 24 25 26 27 28 29 30 31 32 33
000
FTUS45 KBOU 291738
TAFAPA
TAF
KAPA 291738Z 2918/3018 36005KT P6SM FEW070 SCT140 SCT200
     FM291900 02012KT P6SM VCSH SCT070 BKN120
      TEMPO 2920/2924 VRB20G30KT -TSRA BKN060CB
     FM300100 08009KT P6SM SCT080 BKN120
     FM300300 12008KT P6SM FEW080 SCT120
     FM300500 20010KT P6SM FEW110 SCT200
     FM301700 22006KT P6SM FEW090 SCT150 BKN200=

USA.gov is the U.S. government's official web portal to all federal, state and local government web resources and services.